Time;durP1;ratioP1;P1;durP2;ratioP2;P2;SDS_P1;SDS_P2;PMS_P1;PMS_P2;Temp;Humidity;BMP_temperature;BMP_pressure;BME280_temperature;BME280_humidity;BME280_pressure;Samples;Min_cycle;Max_cycle;Signal;HPM_P1;HPM_P2
2023/06/22 00:02:15;;;;;;;21.40;19.50;;;;;;;19.90;88.01;100556.24;104047;276;38480;-75
2023/06/22 00:04:50;;;;;;;19.10;17.30;;;;;;;19.88;88.19;100554.83;104087;276;38224;-73
2023/06/22 00:07:24;;;;;;;20.00;17.80;;;;;;;19.83;88.08;100554.09;104090;276;38489;-73
2023/06/22 00:10:00;;;;;;;20.20;18.30;;;;;;;19.79;88.06;100554.79;104103;276;38245;-74
2023/06/22 00:12:34;;;;;;;20.60;18.60;;;;;;;19.74;88.05;100558.30;103998;277;38488;-74
2023/06/22 00:15:10;;;;;;;19.90;17.90;;;;;;;19.69;88.26;100556.36;104077;276;38251;-73
2023/06/22 00:17:44;;;;;;;19.10;17.40;;;;;;;19.64;88.04;100556.56;104141;276;38513;-72
2023/06/22 00:20:19;;;;;;;18.70;16.90;;;;;;;19.62;88.35;100556.21;104103;276;39730;-73
2023/06/22 00:22:53;;;;;;;19.90;18.20;;;;;;;19.62;88.27;100558.66;104131;276;38228;-72
2023/06/22 00:25:28;;;;;;;21.40;19.20;;;;;;;19.60;88.35;100553.16;104060;276;38218;-74
2023/06/22 00:28:02;;;;;;;19.00;17.10;;;;;;;19.54;88.30;100551.94;104108;276;39593;-73
2023/06/22 00:30:36;;;;;;;19.40;16.80;;;;;;;19.50;88.17;100551.02;104100;276;38273;-73
2023/06/22 00:33:10;;;;;;;17.50;15.80;;;;;;;19.46;88.32;100547.42;104078;276;39723;-73
2023/06/22 00:35:43;;;;;;;18.40;16.70;;;;;;;19.45;88.38;100546.60;104038;276;38298;-73
2023/06/22 00:38:17;;;;;;;20.50;18.60;;;;;;;19.43;88.59;100546.41;104097;276;38493;-72
2023/06/22 00:40:51;;;;;;;21.20;18.40;;;;;;;19.38;88.49;100546.55;104018;276;38394;-72
2023/06/22 00:43:25;;;;;;;18.90;17.10;;;;;;;19.36;88.75;100545.33;104052;276;39903;-74
2023/06/22 00:46:00;;;;;;;18.70;17.00;;;;;;;19.34;88.93;100542.80;104008;276;38870;-75
2023/06/22 00:48:36;;;;;;;20.10;18.20;;;;;;;19.33;88.92;100544.97;103906;277;38248;-72
2023/06/22 00:51:10;;;;;;;19.50;17.90;;;;;;;19.32;88.87;100544.72;104068;276;39466;-73
2023/06/22 00:53:44;;;;;;;20.60;18.50;;;;;;;19.31;89.00;100539.27;104106;276;39426;-74
2023/06/22 00:56:24;;;;;;;19.50;17.70;;;;;;;19.30;88.93;100540.63;104077;276;38502;-73
2023/06/22 00:58:59;;;;;;;19.10;17.20;;;;;;;19.28;89.31;100535.79;104116;276;38473;-73
2023/06/22 01:01:34;;;;;;;20.20;18.30;;;;;;;19.29;89.50;100532.88;104102;276;39677;-73
2023/06/22 01:04:08;;;;;;;21.20;19.20;;;;;;;19.32;89.61;100529.11;104073;277;38724;-74
2023/06/22 01:06:47;;;;;;;19.10;17.30;;;;;;;19.32;89.73;100522.95;104077;276;38227;-72
2023/06/22 01:09:22;;;;;;;;;;;;;;;19.33;89.86;100519.80;104094;276;38356;-74
2023/06/22 01:11:58;;;;;;;19.10;17.30;;;;;;;19.31;90.02;100522.98;104089;276;38490;-73
2023/06/22 01:14:37;;;;;;;20.60;18.40;;;;;;;19.32;89.91;100517.11;103896;277;38959;-73
2023/06/22 01:17:12;;;;;;;22.60;20.20;;;;;;;19.34;90.19;100519.06;104105;277;38754;-73
2023/06/22 01:19:52;;;;;;;22.00;19.80;;;;;;;19.32;89.77;100517.80;104023;277;38266;-73
2023/06/22 01:22:29;;;;;;;20.60;18.30;;;;;;;19.30;89.84;100521.70;104035;277;38519;-73
2023/06/22 01:25:14;;;;;;;19.00;17.30;;;;;;;19.28;89.53;100517.00;103883;277;38983;-71
2023/06/22 01:27:54;;;;;;;19.50;17.70;;;;;;;19.29;90.09;100512.88;103938;277;175121;-73
2023/06/22 01:30:28;;;;;;;21.00;19.10;;;;;;;19.31;90.13;100508.29;104065;276;38916;-72
2023/06/22 01:33:03;;;;;;;20.30;18.50;;;;;;;19.31;90.03;100509.77;104067;276;38349;-73
2023/06/22 01:35:39;;;;;;;19.70;17.90;;;;;;;19.30;89.98;100510.53;104034;276;39399;-73
2023/06/22 01:38:13;;;;;;;21.30;19.40;;;;;;;19.29;89.72;100514.48;104075;276;39431;-72
2023/06/22 01:40:48;;;;;;;22.00;19.90;;;;;;;19.27;89.84;100513.89;104095;276;39418;-73
2023/06/22 01:43:24;;;;;;;23.40;21.00;;;;;;;19.29;90.09;100512.40;104126;276;38427;-73
2023/06/22 01:45:58;;;;;;;21.00;19.10;;;;;;;19.28;89.85;100520.08;104066;276;38240;-73
2023/06/22 01:48:32;;;;;;;20.70;18.90;;;;;;;19.24;89.47;100521.07;104087;276;40286;-73
2023/06/22 01:51:06;;;;;;;21.60;19.50;;;;;;;19.21;89.78;100521.77;104070;276;39057;-73
2023/06/22 01:53:40;;;;;;;19.80;18.00;;;;;;;19.20;89.89;100517.42;104083;276;38279;-73
2023/06/22 01:56:15;;;;;;;22.00;19.80;;;;;;;19.22;89.91;100521.70;104083;276;38396;-73
2023/06/22 01:58:51;;;;;;;21.30;19.30;;;;;;;19.23;89.96;100524.67;104096;276;38572;-72
2023/06/22 02:01:31;;;;;;;20.50;18.60;;;;;;;19.20;90.01;100535.14;104076;276;38794;-72
2023/06/22 02:04:10;;;;;;;19.90;18.10;;;;;;;19.20;89.80;100542.05;104094;276;39898;-73
2023/06/22 02:06:47;;;;;;;22.80;20.50;;;;;;;19.18;89.63;100546.23;104080;276;38272;-73
2023/06/22 02:09:21;;;;;;;23.30;21.00;;;;;;;19.14;89.69;100552.55;104057;276;39040;-72
2023/06/22 02:11:55;;;;;;;23.40;20.90;;;;;;;19.12;89.75;100559.79;104063;276;39498;-72
2023/06/22 02:14:30;;;;;;;24.70;22.20;;;;;;;19.11;90.02;100557.19;104024;276;38256;-75
2023/06/22 02:17:07;;;;;;;26.20;23.60;;;;;;;19.13;90.11;100552.47;104066;276;38439;-72
2023/06/22 02:19:43;;;;;;;27.50;24.80;;;;;;;19.17;90.43;100554.80;104055;276;38242;-72
2023/06/22 02:22:18;;;;;;;29.00;25.90;;;;;;;19.18;90.76;100556.88;104047;264;38371;-73
2023/06/22 02:24:53;;;;;;;28.20;25.50;;;;;;;19.19;90.88;100558.06;104102;276;39473;-74
2023/06/22 02:27:27;;;;;;;28.20;25.40;;;;;;;19.21;90.92;100566.35;104121;276;38666;-74
2023/06/22 02:30:01;;;;;;;28.70;25.90;;;;;;;19.26;91.20;100567.80;104048;264;39613;-72
2023/06/22 02:32:35;;;;;;;30.40;27.30;;;;;;;19.32;91.61;100569.46;104062;277;38282;-72
2023/06/22 02:35:11;;;;;;;31.10;28.10;;;;;;;19.40;91.54;100573.30;104079;276;38192;-74
2023/06/22 02:37:51;;;;;;;35.30;31.80;;;;;;;19.46;91.78;100581.41;104126;276;38261;-74
2023/06/22 02:40:25;;;;;;;33.10;29.60;;;;;;;19.51;91.92;100589.83;104068;276;39969;-74
2023/06/22 02:43:02;;;;;;;31.80;28.50;;;;;;;19.58;92.03;100592.51;104070;276;38843;-72
2023/06/22 02:45:36;;;;;;;35.70;31.50;;;;;;;19.64;92.19;100590.75;104067;276;38460;-72
2023/06/22 02:48:11;;;;;;;36.20;32.40;;;;;;;19.69;92.39;100596.70;104103;276;39440;-72
2023/06/22 02:50:44;;;;;;;43.10;35.10;;;;;;;19.76;92.30;100599.42;104012;264;38310;-72
2023/06/22 02:53:20;;;;;;;40.20;35.80;;;;;;;19.84;92.49;100608.58;104049;276;39428;-72
2023/06/22 02:55:54;;;;;;;39.30;35.10;;;;;;;19.88;92.68;100611.62;104050;276;39978;-73
2023/06/22 02:58:28;;;;;;;40.00;35.70;;;;;;;19.92;92.57;100612.97;104072;276;38269;-72
2023/06/22 03:01:04;;;;;;;42.40;37.10;;;;;;;19.94;92.60;100609.79;104058;276;38743;-72
2023/06/22 03:03:38;;;;;;;39.10;34.90;;;;;;;20.01;92.83;100609.64;104089;276;38537;-72
2023/06/22 03:06:14;;;;;;;41.10;36.70;;;;;;;20.06;92.55;100614.16;104047;276;38407;-71
2023/06/22 03:08:48;;;;;;;44.00;38.80;;;;;;;20.15;92.69;100618.86;104068;276;39473;-72
2023/06/22 03:11:22;;;;;;;41.00;36.60;;;;;;;20.20;92.75;100619.59;104045;276;38465;-72
2023/06/22 03:13:56;;;;;;;40.20;36.00;;;;;;;20.23;92.57;100620.41;104015;276;38542;-73
2023/06/22 03:16:30;;;;;;;38.00;34.10;;;;;;;20.25;92.54;100623.75;104136;276;38280;-72
2023/06/22 03:19:04;;;;;;;40.80;36.30;;;;;;;20.31;92.43;100624.93;104164;275;39410;-73
2023/06/22 03:21:38;;;;;;;41.60;37.30;;;;;;;20.32;92.30;100625.89;104203;275;39643;-73
2023/06/22 03:24:12;;;;;;;39.80;35.80;;;;;;;20.36;92.32;100624.20;104154;275;39427;-73
2023/06/22 03:26:47;;;;;;;40.60;36.30;;;;;;;20.36;91.92;100623.98;104053;276;39356;-73
2023/06/22 03:29:21;;;;;;;38.40;34.40;;;;;;;20.38;92.08;100619.46;104158;275;39912;-74
2023/06/22 03:31:56;;;;;;;40.70;36.50;;;;;;;20.41;92.13;100617.80;104160;275;38613;-75
2023/06/22 03:34:35;;;;;;;39.30;35.20;;;;;;;20.44;91.99;100627.89;103951;277;38355;-73
2023/06/22 03:37:10;;;;;;;37.90;34.00;;;;;;;20.44;92.08;100627.70;104199;275;38505;-73
2023/06/22 03:39:45;;;;;;;38.20;34.20;;;;;;;20.43;91.69;100636.64;104137;275;38441;-73
2023/06/22 03:42:19;;;;;;;38.60;34.50;;;;;;;20.43;91.93;100642.63;104174;275;38415;-72
2023/06/22 03:44:53;;;;;;;38.80;35.00;;;;;;;20.45;92.06;100647.11;104146;275;38668;-72
2023/06/22 03:47:27;;;;;;;37.80;33.90;;;;;;;20.48;92.19;100647.27;104149;275;38759;-73
2023/06/22 03:50:03;;;;;;;37.50;33.60;;;;;;;20.51;92.11;100650.77;104162;275;38724;-73
2023/06/22 03:52:37;;;;;;;39.00;34.80;;;;;;;20.58;92.51;100653.96;104140;275;40095;-73
2023/06/22 03:55:12;;;;;;;37.80;33.80;;;;;;;20.69;92.45;100649.45;104106;275;38221;-74
2023/06/22 03:57:46;;;;;;;38.50;34.60;;;;;;;20.77;92.41;100651.64;104254;275;39651;-73
2023/06/22 04:00:21;;;;;;;37.80;33.90;;;;;;;20.90;93.06;100652.61;104150;275;39547;-73
2023/06/22 04:02:55;;;;;;;36.00;32.30;;;;;;;21.24;95.01;100653.83;104193;275;38283;-74
2023/06/22 04:05:29;;;;;;;35.20;31.60;;;;;;;21.56;93.83;100651.87;104190;276;38240;-73
2023/06/22 04:08:03;;;;;;;35.60;31.80;;;;;;;21.77;93.69;100650.70;103544;275;896936;-73
2023/06/22 04:10:37;;;;;;;35.90;32.10;;;;;;;22.11;93.16;100653.66;104173;275;38417;-73
2023/06/22 04:13:11;;;;;;;35.60;32.00;;;;;;;22.55;93.68;100656.61;104164;275;39790;-74
2023/06/22 04:15:44;;;;;;;35.20;31.70;;;;;;;23.04;92.77;100656.73;104165;275;39605;-73
2023/06/22 04:18:19;;;;;;;34.50;31.10;;;;;;;23.33;90.22;100656.74;104195;275;38692;-72
2023/06/22 04:20:53;;;;;;;34.70;31.40;;;;;;;23.54;87.77;100659.70;104147;275;39418;-72
2023/06/22 04:23:27;;;;;;;34.80;31.00;;;;;;;23.54;86.02;100663.05;104176;275;39944;-72
2023/06/22 04:26:01;;;;;;;31.70;28.60;;;;;;;23.51;84.89;100666.96;104142;276;38240;-72
2023/06/22 04:28:35;;;;;;;31.80;28.40;;;;;;;23.45;83.79;100668.13;104029;275;39411;-73
2023/06/22 04:31:09;;;;;;;32.00;28.80;;;;;;;23.31;83.07;100677.69;104155;275;38446;-72
2023/06/22 04:33:44;;;;;;;32.40;29.30;;;;;;;23.23;83.10;100674.55;103992;277;38496;-74
2023/06/22 04:36:19;;;;;;;31.70;28.50;;;;;;;23.16;82.92;100671.05;104007;277;39475;-73
2023/06/22 04:38:53;;;;;;;32.30;29.00;;;;;;;23.09;82.89;100671.63;104020;275;38233;-72
2023/06/22 04:41:27;;;;;;;31.10;27.00;;;;;;;23.02;82.77;100671.58;104141;275;38234;-72
2023/06/22 04:44:05;;;;;;;29.60;26.50;;;;;;;23.02;83.15;100669.39;104174;276;38252;-74
2023/06/22 04:46:39;;;;;;;28.00;25.30;;;;;;;22.99;83.13;100667.30;104168;275;38443;-74
2023/06/22 04:49:13;;;;;;;28.80;25.80;;;;;;;22.98;83.13;100666.91;104181;276;38737;-72
2023/06/22 04:51:51;;;;;;;29.80;26.80;;;;;;;22.95;82.72;100666.60;104053;275;174644;-73
2023/06/22 04:54:25;;;;;;;28.20;25.40;;;;;;;22.90;82.69;100666.86;104193;275;39582;-73
2023/06/22 04:57:00;;;;;;;27.60;24.50;;;;;;;22.87;83.05;100667.80;104165;275;39921;-73
2023/06/22 04:59:34;;;;;;;28.40;25.60;;;;;;;22.83;83.00;100669.23;104160;275;38489;-73
2023/06/22 05:02:09;;;;;;;28.70;24.90;;;;;;;22.77;83.11;100663.69;104177;275;38247;-73
2023/06/22 05:04:43;;;;;;;27.30;24.40;;;;;;;22.71;83.33;100668.80;104009;275;174637;-73
2023/06/22 05:07:17;;;;;;;26.00;23.40;;;;;;;22.65;83.62;100669.45;104130;276;38293;-73
2023/06/22 05:09:51;;;;;;;25.40;22.70;;;;;;;22.64;83.56;100665.26;104103;275;38248;-73
2023/06/22 05:12:26;;;;;;;24.60;22.20;;;;;;;22.62;83.91;100670.42;104152;275;38493;-72
2023/06/22 05:15:01;;;;;;;24.10;21.60;;;;;;;22.63;84.04;100671.76;103977;276;38271;-72
2023/06/22 05:17:35;;;;;;;30.00;23.20;;;;;;;22.69;84.64;100670.01;104051;276;41220;-73
2023/06/22 05:20:12;;;;;;;25.60;22.00;;;;;;;22.78;84.73;100668.41;104169;275;38508;-73
2023/06/22 05:22:48;;;;;;;23.60;21.20;;;;;;;22.86;84.62;100669.29;104161;275;39196;-73
2023/06/22 05:25:22;;;;;;;23.60;20.90;;;;;;;22.96;84.97;100672.79;103500;275;893494;-73
2023/06/22 05:27:57;;;;;;;21.90;19.70;;;;;;;23.09;84.78;100672.02;104164;275;39419;-73
2023/06/22 05:30:31;;;;;;;23.10;20.80;;;;;;;23.18;84.75;100675.98;104128;275;38342;-72
2023/06/22 05:33:06;;;;;;;22.70;20.50;;;;;;;23.30;84.37;100681.06;104182;275;38597;-73
2023/06/22 05:35:43;;;;;;;23.50;21.10;;;;;;;23.40;84.21;100685.99;104119;275;38240;-73
2023/06/22 05:38:20;;;;;;;23.30;20.80;;;;;;;23.53;83.54;100688.30;104149;275;38221;-74
2023/06/22 05:40:55;;;;;;;23.20;20.10;;;;;;;23.56;82.36;100687.96;104117;275;38697;-72
2023/06/22 05:43:29;;;;;;;21.50;19.30;;;;;;;23.53;81.98;100692.91;104159;275;38422;-73
2023/06/22 05:46:04;;;;;;;22.90;20.60;;;;;;;23.55;82.25;100692.21;104155;275;38333;-74
2023/06/22 05:48:39;;;;;;;22.30;20.20;;;;;;;23.57;82.30;100698.97;104167;275;38251;-74
2023/06/22 05:51:16;;;;;;;20.80;18.80;;;;;;;23.57;82.39;100703.05;104142;275;38211;-74
2023/06/22 05:53:50;;;;;;;19.50;17.50;;;;;;;23.58;82.18;100701.34;104155;275;38372;-74
2023/06/22 05:56:24;;;;;;;21.00;18.90;;;;;;;23.60;82.12;100692.64;104162;276;38350;-74
2023/06/22 05:58:59;;;;;;;19.90;17.90;;;;;;;23.66;82.17;100683.96;104180;275;38543;-74
2023/06/22 06:01:35;;;;;;;20.30;18.20;;;;;;;23.77;82.29;100687.98;104142;275;38780;-73
2023/06/22 06:04:09;;;;;;;18.40;16.60;;;;;;;23.89;82.15;100690.30;104166;275;39813;-73
2023/06/22 06:06:43;;;;;;;18.80;16.90;;;;;;;23.99;81.74;100701.57;104119;276;40010;-74
2023/06/22 06:09:17;;;;;;;20.30;18.20;;;;;;;24.16;82.28;100710.67;104015;277;39516;-73
2023/06/22 06:11:52;;;;;;;18.10;16.30;;;;;;;24.36;81.46;100711.43;104112;275;39784;-74
2023/06/22 06:14:26;;;;;;;17.00;15.60;;;;;;;24.49;80.70;100712.41;104156;276;39184;-74
2023/06/22 06:17:01;;;;;;;17.70;16.00;;;;;;;24.57;79.46;100714.17;104181;275;39393;-72
2023/06/22 06:19:39;;;;;;;17.50;15.80;;;;;;;24.61;78.95;100714.33;104177;275;38378;-73
2023/06/22 06:22:15;;;;;;;16.60;15.00;;;;;;;24.79;79.73;100717.11;104243;276;38452;-73
2023/06/22 06:24:50;;;;;;;15.30;13.70;;;;;;;25.34;82.42;100716.40;104136;275;39701;-73
2023/06/22 06:27:28;;;;;;;13.10;11.90;;;;;;;26.21;79.63;100707.86;104179;275;39139;-74
2023/06/22 06:30:05;;;;;;;;;;;;;;;26.52;75.73;100706.11;103553;276;700013;-74
2023/06/22 06:32:39;;;;;;;14.00;12.70;;;;;;;26.61;73.97;100712.69;104154;275;38285;-73
2023/06/22 06:35:14;;;;;;;14.50;13.00;;;;;;;26.69;72.65;100712.75;104035;276;38481;-72
2023/06/22 06:37:51;;;;;;;14.70;12.20;;;;;;;26.92;71.61;100708.65;104186;275;39988;-74
2023/06/22 06:40:25;;;;;;;12.70;11.60;;;;;;;27.46;71.46;100705.45;104157;276;39409;-74
2023/06/22 06:42:59;;;;;;;13.00;11.70;;;;;;;27.92;68.03;100705.66;104130;275;39428;-74
2023/06/22 06:45:34;;;;;;;12.40;11.20;;;;;;;27.88;66.84;100704.17;104133;275;38672;-74
2023/06/22 06:48:09;;;;;;;12.40;11.30;;;;;;;27.81;66.31;100699.70;104184;275;38220;-76
2023/06/22 06:50:44;;;;;;;12.60;11.40;;;;;;;27.61;65.40;100705.49;104140;275;39560;-75
2023/06/22 06:53:18;;;;;;;12.30;11.00;;;;;;;27.37;65.11;100707.79;104166;275;39614;-76
2023/06/22 06:55:53;;;;;;;11.70;10.60;;;;;;;27.67;66.63;100704.73;104160;275;38485;-76
2023/06/22 06:58:28;;;;;;;11.60;10.50;;;;;;;28.44;65.19;100703.32;104178;275;38364;-74
2023/06/22 07:01:06;;;;;;;10.80;9.80;;;;;;;29.37;63.73;100706.95;104189;275;38821;-74
2023/06/22 07:03:43;;;;;;;10.00;9.10;;;;;;;29.90;60.35;100703.21;104148;275;39503;-74
2023/06/22 07:06:17;;;;;;;10.00;9.00;;;;;;;30.35;58.83;100700.27;104134;275;39645;-74
2023/06/22 07:08:53;;;;;;;8.80;8.10;;;;;;;30.49;56.99;100699.36;104189;276;38234;-74
2023/06/22 07:11:26;;;;;;;8.00;7.30;;;;;;;30.61;56.52;100701.19;104174;275;38256;-73
2023/06/22 07:14:02;;;;;;;7.70;7.00;;;;;;;30.89;56.39;100696.73;104183;275;39462;-75
2023/06/22 07:16:36;;;;;;;7.30;6.60;;;;;;;31.56;54.37;100706.20;104157;275;38434;-74
2023/06/22 07:19:16;;;;;;;6.70;6.20;;;;;;;32.23;52.81;100708.08;104019;276;38368;-73
2023/06/22 07:21:51;;;;;;;6.90;6.30;;;;;;;32.76;50.68;100712.52;104159;275;38230;-74
2023/06/22 07:24:25;;;;;;;7.00;6.40;;;;;;;33.04;48.34;100722.34;104020;277;39032;-73
2023/06/22 07:27:02;;;;;;;6.80;6.10;;;;;;;33.07;47.12;100719.88;104157;275;38282;-75
2023/06/22 07:29:37;;;;;;;6.40;5.90;;;;;;;33.43;47.21;100721.12;104209;276;38293;-73
2023/06/22 07:32:16;;;;;;;7.90;5.40;;;;;;;33.91;44.92;100726.11;104136;276;39644;-74
2023/06/22 07:34:50;;;;;;;6.00;4.70;;;;;;;34.36;44.22;100722.89;104176;275;38548;-74
2023/06/22 07:37:27;;;;;;;4.70;4.30;;;;;;;34.84;42.89;100720.18;104171;275;39629;-75
2023/06/22 07:40:04;;;;;;;6.20;5.30;;;;;;;35.26;41.26;100725.33;104140;275;38422;-75
2023/06/22 07:42:41;;;;;;;7.90;5.30;;;;;;;35.39;40.32;100726.77;104053;277;38228;-74
2023/06/22 07:45:15;;;;;;;4.70;4.30;;;;;;;35.82;40.05;100728.61;104039;276;39537;-74
2023/06/22 07:47:50;;;;;;;4.80;4.10;;;;;;;36.20;37.70;100723.44;104191;275;38572;-73
2023/06/22 07:50:24;;;;;;;4.90;4.20;;;;;;;36.37;36.66;100717.30;104168;276;39429;-74
2023/06/22 07:52:57;;;;;;;5.20;4.20;;;;;;;36.75;36.87;100724.30;104154;276;38317;-75
2023/06/22 07:55:36;;;;;;;5.20;4.20;;;;;;;37.09;35.69;100726.39;104026;276;38245;-76
2023/06/22 07:58:12;;;;;;;5.00;4.60;;;;;;;37.08;35.66;100723.34;104162;275;39591;-74
2023/06/22 08:00:50;;;;;;;5.10;4.50;;;;;;;37.29;35.66;100723.89;104150;275;38390;-74
2023/06/22 08:03:25;;;;;;;4.90;4.50;;;;;;;37.54;34.74;100728.03;104177;276;38228;-76
2023/06/22 08:05:59;;;;;;;4.90;3.90;;;;;;;37.78;33.77;100720.58;104148;275;38406;-76
2023/06/22 08:08:34;;;;;;;4.40;3.90;;;;;;;37.83;33.11;100721.14;104057;276;38503;-73
2023/06/22 08:11:10;;;;;;;6.10;4.00;;;;;;;37.89;32.38;100718.44;104157;275;39705;-74
2023/06/22 08:13:45;;;;;;;3.90;3.60;;;;;;;37.95;31.77;100715.59;104037;275;39537;-74
2023/06/22 08:16:19;;;;;;;4.90;3.80;;;;;;;38.18;31.49;100720.10;104017;277;38548;-74
2023/06/22 08:18:54;;;;;;;5.50;3.50;;;;;;;38.46;31.46;100716.49;104151;275;38526;-74
2023/06/22 08:21:29;;;;;;;5.10;3.30;;;;;;;38.74;30.91;100712.91;104142;275;38884;-74
2023/06/22 08:24:03;;;;;;;4.70;3.00;;;;;;;38.70;30.25;100710.39;104053;276;38808;-74
2023/06/22 08:26:38;;;;;;;8.80;3.80;;;;;;;38.84;31.02;100710.23;104183;275;39178;-74
2023/06/22 08:29:14;;;;;;;;;;;;;;;39.16;30.38;100713.54;104191;275;38717;-75
2023/06/22 08:31:50;;;;;;;3.70;3.10;;;;;;;39.22;29.43;100715.56;104001;275;38301;-76
2023/06/22 08:34:27;;;;;;;3.20;2.90;;;;;;;39.11;28.09;100717.54;104186;276;38468;-76
2023/06/22 08:37:06;;;;;;;3.60;3.10;;;;;;;39.13;28.10;100717.25;104083;275;39426;-75
2023/06/22 08:39:40;;;;;;;3.10;2.80;;;;;;;39.29;28.78;100717.30;104099;275;40150;-75
2023/06/22 08:42:15;;;;;;;4.30;3.30;;;;;;;39.56;28.97;100719.51;104028;275;173733;-75
2023/06/22 08:44:51;;;;;;;4.50;3.10;;;;;;;39.68;27.95;100717.98;104160;276;38258;-75
2023/06/22 08:47:25;;;;;;;3.40;2.60;;;;;;;39.85;28.06;100715.73;104169;275;38272;-76
2023/06/22 08:50:01;;;;;;;3.20;2.90;;;;;;;40.04;27.43;100720.63;104151;275;39465;-76
2023/06/22 08:52:36;;;;;;;3.30;2.70;;;;;;;40.21;27.00;100727.66;104122;275;39417;-75
2023/06/22 08:55:11;;;;;;;3.40;3.00;;;;;;;40.29;26.32;100728.29;104103;263;39441;-75
2023/06/22 08:57:46;;;;;;;6.40;2.70;;;;;;;40.34;26.81;100731.07;104171;275;38730;-75
2023/06/22 09:00:24;;;;;;;3.80;2.60;;;;;;;40.25;25.47;100735.29;104150;275;38793;-75
2023/06/22 09:02:59;;;;;;;3.60;2.80;;;;;;;40.16;26.12;100730.58;104167;275;40097;-74
2023/06/22 09:05:34;;;;;;;5.80;2.30;;;;;;;39.96;25.64;100731.09;104076;277;38400;-74
2023/06/22 09:08:08;;;;;;;4.70;2.80;;;;;;;39.87;26.05;100736.13;104070;276;38777;-75
2023/06/22 09:10:42;;;;;;;3.40;2.50;;;;;;;39.82;25.44;100741.52;104177;275;38356;-74
2023/06/22 09:13:16;;;;;;;3.40;2.80;;;;;;;39.65;25.40;100739.86;104159;275;38397;-75
2023/06/22 09:15:50;;;;;;;5.00;3.00;;;;;;;39.25;25.19;100731.98;103496;275;885332;-75
2023/06/22 09:18:24;;;;;;;3.70;3.00;;;;;;;38.72;25.92;100726.73;104178;275;38936;-75
2023/06/22 09:20:59;;;;;;;3.10;2.80;;;;;;;38.26;26.55;100730.52;104122;275;38370;-75
2023/06/22 09:23:33;;;;;;;3.20;2.70;;;;;;;37.86;26.91;100730.29;103396;275;885203;-75
2023/06/22 09:26:08;;;;;;;3.00;2.70;;;;;;;37.57;26.81;100722.98;104115;271;38550;-75
2023/06/22 09:28:41;;;;;;;5.00;2.80;;;;;;;37.05;26.87;100719.72;104196;275;39667;-75
2023/06/22 09:31:17;;;;;;;4.70;2.80;;;;;;;36.74;28.11;100720.91;104003;275;39568;-75
2023/06/22 09:33:51;;;;;;;3.60;3.30;;;;;;;36.66;29.72;100724.67;104165;275;39499;-75
2023/06/22 09:36:25;;;;;;;3.20;2.90;;;;;;;36.53;29.44;100720.20;104170;275;38320;-74
2023/06/22 09:39:05;;;;;;;3.10;2.80;;;;;;;36.40;29.81;100713.08;104198;275;38231;-74
2023/06/22 09:41:39;;;;;;;4.00;3.10;;;;;;;36.26;29.77;100708.55;104155;275;38952;-75
2023/06/22 09:44:14;;;;;;;5.10;3.10;;;;;;;36.16;30.30;100711.34;104185;263;39438;-75
2023/06/22 09:46:55;;;;;;;7.20;3.30;;;;;;;36.09;30.15;100708.36;104157;275;39668;-74
2023/06/22 09:49:30;;;;;;;3.70;3.20;;;;;;;35.81;29.40;100708.96;104175;275;38518;-75
2023/06/22 09:52:04;;;;;;;3.50;2.90;;;;;;;35.55;30.34;100710.85;104132;275;38422;-73
2023/06/22 09:54:39;;;;;;;3.30;3.00;;;;;;;35.40;30.67;100710.52;104003;276;38474;-73
2023/06/22 09:57:13;;;;;;;5.00;3.20;;;;;;;35.26;31.41;100709.92;104163;275;38231;-73
2023/06/22 09:59:48;;;;;;;6.90;3.70;;;;;;;35.08;32.04;100708.95;104172;275;39756;-74
2023/06/22 10:02:22;;;;;;;3.60;3.20;;;;;;;35.02;31.45;100710.71;104145;275;39511;-74
2023/06/22 10:04:56;;;;;;;3.70;3.10;;;;;;;34.71;31.12;100701.14;104075;276;38506;-74
2023/06/22 10:07:39;;;;;;;4.20;3.30;;;;;;;34.49;31.56;100709.17;104103;276;39430;-75
2023/06/22 10:10:14;;;;;;;4.40;3.20;;;;;;;34.42;32.84;100701.16;104184;275;38240;-73
2023/06/22 10:12:57;;;;;;;3.60;3.20;;;;;;;34.51;32.86;100703.34;104091;276;38217;-74
2023/06/22 10:15:31;;;;;;;4.20;3.30;;;;;;;34.58;31.73;100713.17;104147;275;38308;-74
2023/06/22 10:18:06;;;;;;;4.40;3.30;;;;;;;34.43;30.80;100715.02;104176;275;39710;-73
2023/06/22 10:20:46;;;;;;;3.80;3.50;;;;;;;34.16;32.08;100711.77;104123;275;40180;-73
2023/06/22 10:23:21;;;;;;;4.10;3.50;;;;;;;34.08;31.78;100719.16;104126;276;38490;-73
2023/06/22 10:25:57;;;;;;;5.20;3.20;;;;;;;33.77;31.33;100723.05;103953;277;39529;-74
2023/06/22 10:28:34;;;;;;;5.00;3.10;;;;;;;33.39;32.08;100719.03;104087;275;38327;-75
2023/06/22 10:31:09;;;;;;;4.20;3.40;;;;;;;33.33;32.62;100717.70;104100;275;38233;-75
2023/06/22 10:33:45;;;;;;;5.10;3.40;;;;;;;33.35;33.46;100715.16;104009;277;38450;-75
2023/06/22 10:36:19;;;;;;;5.90;3.50;;;;;;;33.44;34.01;100707.31;104152;275;38932;-75
2023/06/22 10:38:59;;;;;;;5.10;3.70;;;;;;;33.51;33.65;100701.77;104117;276;38265;-75
2023/06/22 10:41:36;;;;;;;7.30;3.80;;;;;;;33.30;32.95;100706.55;103896;276;38257;-75
2023/06/22 10:44:13;;;;;;;5.60;3.20;;;;;;;32.96;33.45;100701.23;103986;276;174194;-75
2023/06/22 10:46:52;;;;;;;5.10;3.20;;;;;;;32.84;33.85;100700.11;104079;276;38787;-75
2023/06/22 10:49:27;;;;;;;4.00;3.50;;;;;;;32.89;34.63;100699.17;104079;276;38667;-75
2023/06/22 10:52:06;;;;;;;4.80;3.70;;;;;;;33.03;34.96;100700.13;104131;275;38739;-75
2023/06/22 10:54:44;;;;;;;4.70;3.50;;;;;;;33.05;34.21;100697.09;104154;275;39702;-75
2023/06/22 10:57:23;;;;;;;5.30;3.70;;;;;;;32.89;33.64;100699.71;104186;276;38267;-75
2023/06/22 11:00:00;;;;;;;5.60;3.80;;;;;;;32.67;33.45;100696.92;104037;276;38618;-76
2023/06/22 11:02:35;;;;;;;4.50;3.50;;;;;;;32.51;34.29;100697.16;104184;275;39397;-75
2023/06/22 11:05:15;;;;;;;4.20;3.70;;;;;;;32.60;35.00;100688.23;104148;275;39664;-75
2023/06/22 11:07:50;;;;;;;4.70;3.70;;;;;;;32.78;35.62;100689.72;104172;275;38380;-75
2023/06/22 11:10:25;;;;;;;6.40;3.70;;;;;;;32.75;33.41;100680.73;104135;276;38685;-75
2023/06/22 11:13:00;;;;;;;4.80;4.00;;;;;;;32.56;34.64;100683.11;104168;275;39676;-75
2023/06/22 11:15:35;;;;;;;6.20;3.80;;;;;;;32.49;34.70;100683.92;104142;275;38483;-75
2023/06/22 11:18:09;;;;;;;8.20;4.10;;;;;;;32.54;35.70;100683.43;104210;275;39661;-75
2023/06/22 11:20:49;;;;;;;4.70;4.00;;;;;;;32.62;35.07;100679.54;104062;276;38410;-75
2023/06/22 11:23:25;;;;;;;4.80;3.80;;;;;;;32.61;34.60;100683.54;104111;276;38293;-75
2023/06/22 11:26:01;;;;;;;4.60;3.80;;;;;;;32.49;34.07;100679.74;104000;276;38356;-75
2023/06/22 11:28:37;;;;;;;4.70;3.40;;;;;;;32.38;34.16;100683.02;103849;276;173867;-75
2023/06/22 11:31:15;;;;;;;5.00;3.20;;;;;;;32.41;34.84;100679.49;104103;275;39854;-75
2023/06/22 11:33:52;;;;;;;5.70;3.70;;;;;;;32.54;35.04;100677.26;104102;276;38264;-75
2023/06/22 11:40:08;;;;;;;5.30;3.40;;;;;;;32.80;34.68;100678.94;104045;276;38493;-75
2023/06/22 11:42:46;;;;;;;6.40;4.00;;;;;;;32.88;34.03;100678.91;103964;278;38279;-75
2023/06/22 11:45:22;;;;;;;3.90;3.60;;;;;;;32.83;33.76;100682.73;103798;278;38850;-75
2023/06/22 11:48:01;;;;;;;4.30;3.90;;;;;;;32.78;34.14;100681.34;103830;278;38227;-76
2023/06/22 11:50:39;;;;;;;5.00;3.60;;;;;;;32.79;34.16;100680.17;103930;278;38673;-75
2023/06/22 11:53:17;;;;;;;5.40;3.40;;;;;;;32.75;33.90;100682.69;103768;278;38394;-74
2023/06/22 11:55:54;;;;;;;4.00;3.60;;;;;;;32.52;33.42;100686.56;103878;278;39437;-73
2023/06/22 11:58:28;;;;;;;4.50;3.80;;;;;;;32.34;33.94;100686.66;103917;278;39497;-74